Terminal Aerodrome Forecast
Issued by NWS Tampa Bay Area, FL

Home | Current Version | Previous Version | Text Only | Print | Product List | Glossary On
Versions: 1 2 3 4 5 6 7 8 9 10 11 12 13 14 15 16 17 18 19 20 21 22 23 24 25 26 27 28 29 30 31
000
FTUS42 KTBW 042354
TAFTPA
TAF
KTPA 042354Z 0500/0524 27007KT P6SM FEW040 BKN200
     FM050200 VRB03KT P6SM FEW025 SCT250
     FM051600 24007KT P6SM VCTS SCT035CB SCT150
     FM052100 27007KT P6SM SCT045 SCT200=

USA.gov is the U.S. government's official web portal to all federal, state and local government web resources and services.